Time;durP1;ratioP1;P1;durP2;ratioP2;P2;SDS_P1;SDS_P2;PMS_P1;PMS_P2;Temp;Humidity;BMP_temperature;BMP_pressure;BME280_temperature;BME280_humidity;BME280_pressure;Samples;Min_cycle;Max_cycle;Signal;HPM_P1;HPM_P2
2023/01/12 00:02:02;;;;;;;5.13;1.90;;;;;;;;;;5041554;28;20049;-77
2023/01/12 00:04:30;;;;;;;4.00;1.60;;;;;;;;;;5041605;28;20037;-77
2023/01/12 00:06:56;;;;;;;2.85;1.50;;;;;;;;;;5041023;28;20056;-77
2023/01/12 00:09:23;;;;;;;4.10;1.58;;;;;;;;;;5040901;28;20102;-79
2023/01/12 00:11:50;;;;;;;3.60;1.35;;;;;;;;;;5040341;28;20062;-79
2023/01/12 00:14:17;;;;;;;4.22;1.05;;;;;;;;;;5039510;28;20029;-78
2023/01/12 00:16:44;;;;;;;3.15;1.33;;;;;;;;;;5039504;28;20029;-78
2023/01/12 00:19:14;;;;;;;3.05;1.17;;;;;;;;;;5031197;28;20136;-77
2023/01/12 00:21:55;;;;;;;3.72;1.42;;;;;;;;;;5037822;28;20068;-78
2023/01/12 00:24:25;;;;;;;5.13;1.05;;;;;;;;;;5034042;28;20050;-77
2023/01/12 00:26:52;;;;;;;2.70;1.15;;;;;;;;;;5031107;28;20108;-78
2023/01/12 00:29:19;;;;;;;4.60;1.42;;;;;;;;;;5038328;28;20046;-79
2023/01/12 00:31:47;;;;;;;3.95;1.25;;;;;;;;;;5040244;28;20034;-79
2023/01/12 00:34:15;;;;;;;2.22;1.30;;;;;;;;;;5040461;28;20590;-78
2023/01/12 00:36:42;;;;;;;4.38;1.13;;;;;;;;;;5040406;28;20037;-78
2023/01/12 00:39:09;;;;;;;3.50;1.52;;;;;;;;;;5039821;28;20045;-78
2023/01/12 00:47:07;;;;;;;4.43;1.40;;;;;;;;;;5020130;28;20073;-78
2023/01/12 00:49:34;;;;;;;2.83;1.15;;;;;;;;;;5032110;28;20048;-78
2023/01/12 00:52:00;;;;;;;2.85;1.10;;;;;;;;;;5039394;28;20076;-79
2023/01/12 00:54:27;;;;;;;3.60;1.40;;;;;;;;;;5039253;28;20037;-78
2023/01/12 00:56:54;;;;;;;4.35;1.58;;;;;;;;;;5039413;28;20105;-78
2023/01/12 00:59:20;;;;;;;4.72;1.40;;;;;;;;;;5039592;28;20073;-78
2023/01/12 01:01:47;;;;;;;2.85;1.40;;;;;;;;;;5038542;28;20030;-79
2023/01/12 01:04:15;;;;;;;3.45;1.30;;;;;;;;;;5037026;28;20050;-79
2023/01/12 01:06:44;;;;;;;4.38;1.52;;;;;;;;;;5030460;28;20073;-78
2023/01/12 01:09:11;;;;;;;3.45;1.20;;;;;;;;;;5024489;28;20069;-78
2023/01/12 01:11:37;;;;;;;3.20;1.40;;;;;;;;;;5021523;28;20050;-77
2023/01/12 01:14:04;;;;;;;3.35;1.23;;;;;;;;;;5016917;28;20056;-77
2023/01/12 01:16:31;;;;;;;3.20;1.48;;;;;;;;;;5018403;28;20049;-77
2023/01/12 01:18:59;;;;;;;3.97;1.52;;;;;;;;;;5017261;28;20053;-78
2023/01/12 01:21:27;;;;;;;4.95;1.80;;;;;;;;;;5018815;28;20527;-79
2023/01/12 01:23:54;;;;;;;5.53;1.55;;;;;;;;;;5016924;28;20064;-77
2023/01/12 01:26:22;;;;;;;4.38;1.55;;;;;;;;;;5016627;28;20041;-78
2023/01/12 01:28:49;;;;;;;3.22;1.40;;;;;;;;;;5016456;28;20133;-78
2023/01/12 01:31:18;;;;;;;4.60;1.50;;;;;;;;;;5016166;28;20130;-78
2023/01/12 01:33:45;;;;;;;3.55;1.48;;;;;;;;;;5016696;28;20077;-78
2023/01/12 01:36:12;;;;;;;4.32;1.65;;;;;;;;;;5022360;28;20049;-79
2023/01/12 01:38:43;;;;;;;6.18;1.90;;;;;;;;;;5019436;28;20056;-79
2023/01/12 01:41:17;;;;;;;5.70;1.48;;;;;;;;;;5020308;28;20088;-77
2023/01/12 01:43:58;;;;;;;4.25;1.50;;;;;;;;;;5016543;28;20093;-77
2023/01/12 01:46:40;;;;;;;4.88;1.40;;;;;;;;;;5016117;28;20045;-78
2023/01/12 01:49:25;;;;;;;2.92;1.35;;;;;;;;;;5017324;28;20042;-78
2023/01/12 01:51:53;;;;;;;3.95;1.58;;;;;;;;;;5016648;28;20450;-78
2023/01/12 01:54:22;;;;;;;4.63;1.90;;;;;;;;;;5020759;28;20046;-78
2023/01/12 01:56:52;;;;;;;6.80;1.63;;;;;;;;;;5019927;28;20053;-78
2023/01/12 01:59:22;;;;;;;4.70;1.50;;;;;;;;;;5023305;28;20048;-79
2023/01/12 02:01:49;;;;;;;5.63;1.48;;;;;;;;;;5017375;28;20037;-78
2023/01/12 02:04:16;;;;;;;4.35;1.60;;;;;;;;;;5014918;28;20081;-77
2023/01/12 02:06:43;;;;;;;8.05;1.52;;;;;;;;;;5014437;28;20536;-78
2023/01/12 02:09:13;;;;;;;5.65;1.77;;;;;;;;;;5014556;28;20148;-78
2023/01/12 02:17:27;;;;;;;4.75;1.50;;;;;;;;;;4998661;28;20179;-78
2023/01/12 02:20:25;;;;;;;4.18;2.03;;;;;;;;;;5014808;28;20077;-77
2023/01/12 02:23:10;;;;;;;4.43;1.60;;;;;;;;;;5014499;28;20129;-78
2023/01/12 02:26:24;;;;;;;3.60;1.65;;;;;;;;;;5016011;28;20412;-78
2023/01/12 02:29:17;;;;;;;5.03;1.45;;;;;;;;;;4960458;29;20078;-79
2023/01/12 02:31:56;;;;;;;3.65;1.10;;;;;;;;;;4954756;29;20086;-78
2023/01/12 02:34:33;;;;;;;3.40;1.00;;;;;;;;;;5001433;28;20140;-78
2023/01/12 02:37:07;;;;;;;3.17;1.38;;;;;;;;;;5013749;28;20050;-78
2023/01/12 02:39:42;;;;;;;3.95;1.38;;;;;;;;;;5014118;28;20049;-77
2023/01/12 02:45:08;;;;;;;3.35;1.17;;;;;;;;;;5013584;28;20482;-77
2023/01/12 02:47:44;;;;;;;6.10;2.50;;;;;;;;;;5014163;28;20134;-77
2023/01/12 02:50:17;;;;;;;4.45;1.30;;;;;;;;;;4994724;28;20078;-78
2023/01/12 02:52:48;;;;;;;5.90;1.45;;;;;;;;;;4994863;28;20050;-78
2023/01/12 02:55:17;;;;;;;4.95;1.23;;;;;;;;;;5009498;28;20137;-77
2023/01/12 02:57:45;;;;;;;5.75;1.40;;;;;;;;;;5014351;28;20073;-77
2023/01/12 03:00:16;;;;;;;3.17;1.02;;;;;;;;;;5014088;28;20108;-78
2023/01/12 03:02:44;;;;;;;4.97;1.17;;;;;;;;;;5014479;28;20072;-78
2023/01/12 03:05:11;;;;;;;5.55;1.42;;;;;;;;;;5008311;28;20608;-78
2023/01/12 03:07:44;;;;;;;6.35;1.70;;;;;;;;;;5014138;28;20537;-78
2023/01/12 03:10:46;;;;;;;5.68;1.75;;;;;;;;;;5014578;28;20109;-78
2023/01/12 03:13:16;;;;;;;7.15;1.30;;;;;;;;;;5013335;28;20046;-78
2023/01/12 03:15:46;;;;;;;8.07;1.87;;;;;;;;;;5014228;28;20057;-78
2023/01/12 03:18:18;;;;;;;4.68;1.25;;;;;;;;;;5018279;28;20718;-78
2023/01/12 03:20:49;;;;;;;4.95;1.23;;;;;;;;;;5016997;28;20515;-78
2023/01/12 03:23:18;;;;;;;;;;;;;;;;;;5016057;28;20129;-78
2023/01/12 03:25:45;;;;;;;4.57;1.35;;;;;;;;;;5014416;28;19921;-78
2023/01/12 03:28:16;;;;;;;7.22;1.60;;;;;;;;;;5015895;28;20077;-78
2023/01/12 03:30:45;;;;;;;;;;;;;;;;;;5014777;28;20049;-78
2023/01/12 03:33:13;;;;;;;5.25;1.35;;;;;;;;;;5013972;28;20004;-78
2023/01/12 03:35:49;;;;;;;9.27;1.92;;;;;;;;;;5014585;28;20085;-78
2023/01/12 03:38:23;;;;;;;3.95;1.33;;;;;;;;;;5014745;28;20209;-77
2023/01/12 03:40:59;;;;;;;7.15;1.38;;;;;;;;;;5015153;28;20073;-78
2023/01/12 03:43:30;;;;;;;6.03;1.73;;;;;;;;;;5013795;28;20049;-78
2023/01/12 03:46:00;;;;;;;;;;;;;;;;;;5014229;28;20137;-78
2023/01/12 03:48:32;;;;;;;7.40;1.58;;;;;;;;;;5014600;28;19921;-78
2023/01/12 03:51:05;;;;;;;4.38;1.17;;;;;;;;;;5015058;28;20104;-78
2023/01/12 03:53:33;;;;;;;6.50;1.40;;;;;;;;;;5013997;28;20129;-78
2023/01/12 03:56:04;;;;;;;4.57;1.55;;;;;;;;;;5014104;28;20057;-77
2023/01/12 03:58:33;;;;;;;;;;;;;;;;;;5008150;28;20133;-78
2023/01/12 04:01:00;;;;;;;6.32;1.73;;;;;;;;;;5017471;28;19921;-78
2023/01/12 04:03:27;;;;;;;7.15;1.48;;;;;;;;;;5015153;28;20589;-78
2023/01/12 04:05:54;;;;;;;7.25;1.80;;;;;;;;;;5005753;28;20042;-79
2023/01/12 04:08:22;;;;;;;4.80;1.80;;;;;;;;;;5015230;28;20121;-79
2023/01/12 04:10:49;;;;;;;4.45;1.67;;;;;;;;;;5017402;28;20046;-78
2023/01/12 04:13:14;;;;;;;3.20;1.60;;;;;;;;;;5018666;28;20045;-78
2023/01/12 04:15:42;;;;;;;5.03;1.60;;;;;;;;;;5016263;28;20416;-78
2023/01/12 04:18:09;;;;;;;7.47;2.03;;;;;;;;;;5016161;28;20057;-79
2023/01/12 04:20:36;;;;;;;6.85;1.30;;;;;;;;;;5016968;28;20081;-78
2023/01/12 04:23:01;;;;;;;4.10;1.20;;;;;;;;;;5016874;28;20061;-78
2023/01/12 04:25:30;;;;;;;4.47;1.10;;;;;;;;;;5017283;28;20082;-78
2023/01/12 04:27:59;;;;;;;4.32;1.45;;;;;;;;;;5017209;28;20050;-78
2023/01/12 04:30:27;;;;;;;6.22;1.33;;;;;;;;;;5017816;28;20081;-79
2023/01/12 04:32:54;;;;;;;5.90;1.15;;;;;;;;;;5017766;28;20073;-78
2023/01/12 04:35:22;;;;;;;3.90;1.20;;;;;;;;;;5018340;28;20081;-79
2023/01/12 04:37:49;;;;;;;3.55;1.20;;;;;;;;;;5022002;28;20762;-80
2023/01/12 04:40:17;;;;;;;5.95;1.60;;;;;;;;;;5021653;28;20049;-79
2023/01/12 04:43:03;;;;;;;3.65;1.25;;;;;;;;;;5020560;28;20189;-79
2023/01/12 04:45:32;;;;;;;4.63;1.20;;;;;;;;;;5019893;28;20104;-79
2023/01/12 04:48:01;;;;;;;3.70;1.42;;;;;;;;;;5058678;22;20073;-83
2023/01/12 04:50:28;;;;;;;4.32;1.13;;;;;;;;;;5001541;28;20052;-83
2023/01/12 04:52:54;;;;;;;4.00;1.42;;;;;;;;;;5002171;28;20134;-83
2023/01/12 04:55:21;;;;;;;4.22;1.23;;;;;;;;;;5004157;28;20050;-83
2023/01/12 04:57:47;;;;;;;4.97;2.65;;;;;;;;;;5020302;28;20129;-83
2023/01/12 05:00:16;;;;;;;3.58;1.70;;;;;;;;;;5002403;28;20125;-83
2023/01/12 05:02:43;;;;;;;2.28;1.20;;;;;;;;;;5001484;28;20054;-84
2023/01/12 05:05:09;;;;;;;5.25;1.48;;;;;;;;;;5001644;28;20499;-83
2023/01/12 05:07:36;;;;;;;4.13;1.00;;;;;;;;;;4982815;28;20046;-83
2023/01/12 05:12:46;;;;;;;3.20;1.10;;;;;;;;;;5011931;28;20053;-83
2023/01/12 05:15:13;;;;;;;3.47;0.95;;;;;;;;;;5020291;28;20045;-84
2023/01/12 05:17:41;;;;;;;3.35;0.93;;;;;;;;;;5020355;28;20050;-83
2023/01/12 05:20:09;;;;;;;5.97;1.42;;;;;;;;;;5007729;28;20556;-83
2023/01/12 05:22:35;;;;;;;2.95;1.05;;;;;;;;;;4980281;28;20114;-83
2023/01/12 05:25:02;;;;;;;3.95;1.13;;;;;;;;;;4988834;28;20057;-83
2023/01/12 05:27:29;;;;;;;7.40;1.85;;;;;;;;;;4999541;28;20112;-83
2023/01/12 05:29:58;;;;;;;4.13;1.35;;;;;;;;;;5000586;28;20409;-83
2023/01/12 05:32:25;;;;;;;3.08;1.05;;;;;;;;;;4999584;28;20137;-83
2023/01/12 05:34:52;;;;;;;3.85;0.90;;;;;;;;;;4999316;28;20050;-83
2023/01/12 05:37:19;;;;;;;4.95;1.10;;;;;;;;;;4998871;28;20077;-83
2023/01/12 05:39:46;;;;;;;4.53;1.27;;;;;;;;;;5005797;28;20121;-83
2023/01/12 05:44:57;;;;;;;6.57;1.58;;;;;;;;;;5020097;28;20081;-82
2023/01/12 05:47:23;;;;;;;6.25;1.48;;;;;;;;;;4986917;28;20057;-82
2023/01/12 05:49:58;;;;;;;3.67;1.20;;;;;;;;;;5000975;28;20065;-83
2023/01/12 05:52:25;;;;;;;4.53;1.17;;;;;;;;;;4997163;28;20457;-83
2023/01/12 05:54:52;;;;;;;5.90;1.67;;;;;;;;;;4999807;28;20057;-83
2023/01/12 05:57:18;;;;;;;6.20;1.05;;;;;;;;;;5018141;28;20108;-83
2023/01/12 05:59:45;;;;;;;2.35;1.08;;;;;;;;;;5014662;28;20048;-83
2023/01/12 06:02:16;;;;;;;2.67;0.95;;;;;;;;;;5003330;28;20056;-83
2023/01/12 06:04:42;;;;;;;3.50;0.88;;;;;;;;;;5001027;28;20132;-83
2023/01/12 06:07:12;;;;;;;3.92;1.10;;;;;;;;;;5014510;28;20114;-83
2023/01/12 06:09:39;;;;;;;3.93;1.43;;;;;;;;;;5019115;28;20080;-81
2023/01/12 06:14:50;;;;;;;8.98;1.50;;;;;;;;;;5028028;28;20040;-82
2023/01/12 06:17:17;;;;;;;2.17;0.98;;;;;;;;;;5016613;28;20046;-82
2023/01/12 06:19:44;;;;;;;3.55;0.95;;;;;;;;;;5010332;28;20070;-82
2023/01/12 06:22:12;;;;;;;8.48;1.48;;;;;;;;;;5002949;28;20043;-83
2023/01/12 06:24:39;;;;;;;5.43;1.35;;;;;;;;;;5007308;28;20050;-83
2023/01/12 06:27:06;;;;;;;3.28;1.27;;;;;;;;;;5017223;28;20057;-83
2023/01/12 06:29:32;;;;;;;3.63;1.48;;;;;;;;;;5013884;28;20054;-82
2023/01/12 06:31:59;;;;;;;3.80;1.10;;;;;;;;;;4996670;28;20121;-83
2023/01/12 06:34:25;;;;;;;2.67;1.00;;;;;;;;;;5002134;28;20069;-82
2023/01/12 06:36:52;;;;;;;4.03;1.20;;;;;;;;;;5017467;28;20057;-81
2023/01/12 06:39:20;;;;;;;4.35;1.20;;;;;;;;;;5016015;28;20042;-82
2023/01/12 06:44:31;;;;;;;5.93;1.08;;;;;;;;;;5016887;28;20432;-82
2023/01/12 06:46:57;;;;;;;5.20;1.20;;;;;;;;;;5016734;28;20081;-83
2023/01/12 06:49:24;;;;;;;6.47;1.45;;;;;;;;;;5016075;28;20050;-82
2023/01/12 06:51:51;;;;;;;4.38;1.58;;;;;;;;;;5019863;28;20042;-82
2023/01/12 06:54:17;;;;;;;4.28;1.13;;;;;;;;;;5018259;28;20057;-81
2023/01/12 06:56:45;;;;;;;4.30;1.00;;;;;;;;;;5004270;28;20416;-82
2023/01/12 06:59:12;;;;;;;4.88;0.93;;;;;;;;;;5014914;28;20469;-82
2023/01/12 07:01:39;;;;;;;4.18;1.30;;;;;;;;;;5018201;28;20070;-82
2023/01/12 07:04:06;;;;;;;5.07;1.38;;;;;;;;;;5005258;28;20105;-81
2023/01/12 07:06:32;;;;;;;5.28;1.25;;;;;;;;;;4981731;28;20085;-82
2023/01/12 07:08:59;;;;;;;5.93;1.10;;;;;;;;;;5014605;28;20544;-82
2023/01/12 07:11:25;;;;;;;4.03;1.45;;;;;;;;;;5026017;28;20049;-82
2023/01/12 07:13:55;;;;;;;4.53;0.80;;;;;;;;;;5014219;28;20129;-81
2023/01/12 07:16:21;;;;;;;3.60;0.98;;;;;;;;;;5003159;28;20049;-81
2023/01/12 07:18:48;;;;;;;7.10;1.58;;;;;;;;;;5008758;28;20145;-82
2023/01/12 07:21:15;;;;;;;2.60;1.17;;;;;;;;;;5018576;28;20046;-82
2023/01/12 07:23:42;;;;;;;3.35;0.80;;;;;;;;;;5016214;28;20049;-82
2023/01/12 07:26:09;;;;;;;7.47;1.27;;;;;;;;;;5017020;28;20046;-82
2023/01/12 07:28:36;;;;;;;6.55;1.10;;;;;;;;;;5019567;28;20132;-82
2023/01/12 07:31:05;;;;;;;3.28;1.23;;;;;;;;;;5025352;28;20069;-82
2023/01/12 07:33:33;;;;;;;5.63;1.00;;;;;;;;;;5032540;28;20050;-81
2023/01/12 07:36:00;;;;;;;4.63;1.02;;;;;;;;;;5030852;28;20052;-82
2023/01/12 07:38:27;;;;;;;6.82;1.40;;;;;;;;;;5016492;28;20068;-82
2023/01/12 07:40:54;;;;;;;5.07;1.70;;;;;;;;;;5004509;28;20054;-83
2023/01/12 07:43:22;;;;;;;6.03;1.20;;;;;;;;;;5004677;28;20066;-83
2023/01/12 07:45:48;;;;;;;4.80;0.90;;;;;;;;;;5004038;28;20082;-83
2023/01/12 07:48:16;;;;;;;3.60;1.00;;;;;;;;;;5006180;28;20053;-83
2023/01/12 07:50:43;;;;;;;5.50;1.10;;;;;;;;;;4986920;28;20074;-83
2023/01/12 07:53:10;;;;;;;5.13;1.35;;;;;;;;;;5012842;28;20041;-82
2023/01/12 07:55:38;;;;;;;6.65;1.20;;;;;;;;;;5022564;28;20073;-84
2023/01/12 07:58:07;;;;;;;2.90;0.80;;;;;;;;;;5009444;28;20050;-84
2023/01/12 08:00:34;;;;;;;5.13;1.13;;;;;;;;;;5004038;28;20070;-83
2023/01/12 08:03:04;;;;;;;5.13;1.10;;;;;;;;;;5011530;28;20092;-82
2023/01/12 08:05:34;;;;;;;6.55;1.42;;;;;;;;;;5020734;28;20046;-84
2023/01/12 08:08:01;;;;;;;5.45;1.60;;;;;;;;;;5010134;28;20043;-83
2023/01/12 08:10:27;;;;;;;2.38;1.05;;;;;;;;;;5005790;28;20057;-83
2023/01/12 08:12:54;;;;;;;4.88;1.35;;;;;;;;;;5011387;28;20033;-84
2023/01/12 08:15:21;;;;;;;6.82;1.30;;;;;;;;;;5003250;28;20052;-82
2023/01/12 08:17:54;;;;;;;5.82;1.40;;;;;;;;;;5005188;28;20621;-83
2023/01/12 08:20:26;;;;;;;6.22;1.10;;;;;;;;;;5017459;28;20054;-81
2023/01/12 08:22:58;;;;;;;4.75;2.08;;;;;;;;;;5020200;28;20049;-81
2023/01/12 08:25:43;;;;;;;5.38;1.00;;;;;;;;;;5017446;28;20435;-81
2023/01/12 08:28:15;;;;;;;3.13;0.93;;;;;;;;;;5011852;28;20539;-81
2023/01/12 08:30:44;;;;;;;7.65;1.27;;;;;;;;;;5003222;28;20402;-82
2023/01/12 08:33:11;;;;;;;5.18;1.65;;;;;;;;;;4996833;28;20053;-82
2023/01/12 08:35:38;;;;;;;4.05;1.10;;;;;;;;;;4997415;28;20050;-82
2023/01/12 08:38:06;;;;;;;4.57;1.30;;;;;;;;;;5013498;28;20046;-81
2023/01/12 08:44:00;;;;;;;6.35;1.50;;;;;;;;;;4999505;28;20086;-82
2023/01/12 08:46:06;;;;;;;4.43;0.95;;;;;;;;;;5003514;28;20100;-82
2023/01/12 08:48:42;;;;;;;6.05;0.98;;;;;;;;;;5017428;28;20046;-82
2023/01/12 08:51:09;;;;;;;2.35;0.85;;;;;;;;;;5017455;28;20045;-82
2023/01/12 08:53:37;;;;;;;4.32;1.35;;;;;;;;;;5017921;28;20050;-82
2023/01/12 08:56:07;;;;;;;5.22;1.10;;;;;;;;;;5017879;28;20497;-81
2023/01/12 08:58:34;;;;;;;4.55;1.10;;;;;;;;;;5016885;28;20049;-81
2023/01/12 09:01:06;;;;;;;4.00;1.10;;;;;;;;;;5016683;28;20053;-82
2023/01/12 09:03:33;;;;;;;4.30;0.80;;;;;;;;;;5003787;28;20116;-83
2023/01/12 09:05:59;;;;;;;4.47;0.82;;;;;;;;;;5002824;28;20076;-84
2023/01/12 09:08:26;;;;;;;3.50;1.00;;;;;;;;;;5002595;28;20050;-83
2023/01/12 09:11:02;;;;;;;3.58;0.85;;;;;;;;;;5012805;28;20050;-84
2023/01/12 09:13:29;;;;;;;6.43;1.10;;;;;;;;;;4997225;28;20054;-85
2023/01/12 09:15:55;;;;;;;4.13;1.20;;;;;;;;;;5017587;28;20092;-83
2023/01/12 09:18:22;;;;;;;5.32;1.65;;;;;;;;;;5017230;28;20101;-84
2023/01/12 09:20:48;;;;;;;6.22;1.67;;;;;;;;;;5007694;28;20433;-83
2023/01/12 09:23:15;;;;;;;2.67;1.00;;;;;;;;;;5003871;28;20110;-84
2023/01/12 09:25:42;;;;;;;4.88;0.90;;;;;;;;;;5014982;28;20038;-82
2023/01/12 09:28:15;;;;;;;4.43;1.00;;;;;;;;;;5015721;28;20500;-83
2023/01/12 09:30:42;;;;;;;4.03;1.70;;;;;;;;;;5001700;28;20047;-83
2023/01/12 09:33:09;;;;;;;2.85;0.70;;;;;;;;;;4995225;28;20105;-83
2023/01/12 09:35:35;;;;;;;5.13;1.10;;;;;;;;;;4995877;28;20117;-82
2023/01/12 09:38:02;;;;;;;4.97;1.30;;;;;;;;;;4997918;28;20508;-83
2023/01/12 09:40:29;;;;;;;6.47;1.40;;;;;;;;;;5015089;28;20105;-82
2023/01/12 09:48:27;;;;;;;4.85;0.90;;;;;;;;;;5016487;28;20484;-81
2023/01/12 09:50:58;;;;;;;3.65;1.25;;;;;;;;;;5006873;28;20144;-79
2023/01/12 09:53:29;;;;;;;4.65;1.25;;;;;;;;;;5000278;28;20078;-81
2023/01/12 09:56:03;;;;;;;3.97;0.80;;;;;;;;;;5016937;28;20049;-82
2023/01/12 09:58:53;;;;;;;3.53;0.95;;;;;;;;;;5011029;28;20628;-80
2023/01/12 10:01:22;;;;;;;5.90;1.50;;;;;;;;;;4998577;28;20558;-83
2023/01/12 10:03:49;;;;;;;4.80;1.17;;;;;;;;;;4998525;28;20100;-81
2023/01/12 10:06:17;;;;;;;4.13;1.15;;;;;;;;;;4981850;28;20265;-82
2023/01/12 10:08:47;;;;;;;2.50;0.82;;;;;;;;;;5002633;28;20454;-82
2023/01/12 10:11:19;;;;;;;2.72;1.30;;;;;;;;;;5021440;28;20132;-81
2023/01/12 10:14:09;;;;;;;2.60;0.70;;;;;;;;;;5020508;28;20054;-82
2023/01/12 10:16:45;;;;;;;6.07;0.97;;;;;;;;;;5017132;28;20042;-82
2023/01/12 10:19:21;;;;;;;5.30;0.73;;;;;;;;;;5012412;28;20121;-81
2023/01/12 10:21:50;;;;;;;3.15;1.15;;;;;;;;;;4997900;28;20049;-82
2023/01/12 10:24:20;;;;;;;3.22;1.05;;;;;;;;;;5003096;28;20049;-81
2023/01/12 10:26:51;;;;;;;2.10;0.75;;;;;;;;;;5015675;28;20072;-81
2023/01/12 10:29:19;;;;;;;8.90;1.65;;;;;;;;;;4998209;28;20054;-82
2023/01/12 10:31:47;;;;;;;2.70;0.93;;;;;;;;;;4998600;28;20093;-83
2023/01/12 10:34:14;;;;;;;3.50;0.77;;;;;;;;;;4987357;28;20046;-82
2023/01/12 10:36:45;;;;;;;3.28;0.80;;;;;;;;;;4997615;28;20240;-81
2023/01/12 10:39:28;;;;;;;4.65;0.80;;;;;;;;;;4999005;28;20048;-82
2023/01/12 10:43:17;;;;;;;3.25;0.70;;;;;;;;;;4994320;28;20066;-82
2023/01/12 10:45:16;;;;;;;5.30;0.80;;;;;;;;;;5009356;28;20043;-79
2023/01/12 10:47:45;;;;;;;6.47;1.20;;;;;;;;;;5019239;28;20058;-81
2023/01/12 10:50:22;;;;;;;2.97;1.17;;;;;;;;;;5010520;28;20096;-80
2023/01/12 10:52:53;;;;;;;3.55;0.80;;;;;;;;;;5003868;28;20072;-83
2023/01/12 10:55:20;;;;;;;4.65;0.85;;;;;;;;;;5014763;28;20491;-80
2023/01/12 10:57:48;;;;;;;3.50;1.38;;;;;;;;;;5008286;28;20038;-82
2023/01/12 11:00:20;;;;;;;5.60;1.10;;;;;;;;;;4995765;28;20390;-83
2023/01/12 11:02:49;;;;;;;5.80;0.93;;;;;;;;;;4995932;28;20124;-82
2023/01/12 11:05:37;;;;;;;4.25;0.90;;;;;;;;;;4986854;28;20126;-82
2023/01/12 11:08:18;;;;;;;4.43;0.98;;;;;;;;;;4982848;28;20073;-81
2023/01/12 11:10:45;;;;;;;1.80;0.63;;;;;;;;;;4997100;28;20082;-82
2023/01/12 11:13:25;;;;;;;1.75;0.60;;;;;;;;;;5003837;28;20052;-80
2023/01/12 11:16:10;;;;;;;4.18;0.60;;;;;;;;;;5016409;28;20471;-82
2023/01/12 11:18:45;;;;;;;2.08;0.70;;;;;;;;;;5005622;28;20130;-82
2023/01/12 11:21:15;;;;;;;3.40;0.55;;;;;;;;;;4996984;28;20054;-80
2023/01/12 11:23:52;;;;;;;2.33;0.60;;;;;;;;;;5006783;28;20089;-82
2023/01/12 11:26:21;;;;;;;3.20;0.95;;;;;;;;;;5017610;28;20129;-81
2023/01/12 11:28:53;;;;;;;2.13;0.63;;;;;;;;;;5005817;28;20434;-82
2023/01/12 11:31:25;;;;;;;4.60;1.05;;;;;;;;;;5011559;28;20054;-81
2023/01/12 11:33:58;;;;;;;3.90;0.90;;;;;;;;;;5015494;28;20053;-82
2023/01/12 11:36:27;;;;;;;2.53;0.80;;;;;;;;;;5016882;28;20049;-81
2023/01/12 11:38:59;;;;;;;3.42;0.60;;;;;;;;;;5011167;28;20038;-82
2023/01/12 11:41:34;;;;;;;2.42;0.70;;;;;;;;;;5002856;28;20046;-81
2023/01/12 11:44:04;;;;;;;7.18;1.92;;;;;;;;;;5012402;22;20114;-81
2023/01/12 11:46:38;;;;;;;3.13;0.90;;;;;;;;;;5013243;28;20081;-75
2023/01/12 11:49:12;;;;;;;3.35;0.90;;;;;;;;;;4992016;28;20110;-76
2023/01/12 11:51:40;;;;;;;2.75;0.70;;;;;;;;;;4991791;28;20054;-75
2023/01/12 11:54:12;;;;;;;4.20;1.23;;;;;;;;;;5012034;28;20189;-78
2023/01/12 11:57:10;;;;;;;4.53;0.90;;;;;;;;;;5011327;28;20085;-78
2023/01/12 11:59:48;;;;;;;2.17;0.75;;;;;;;;;;5014383;28;20056;-79
2023/01/12 12:02:31;;;;;;;3.42;0.60;;;;;;;;;;5007465;28;20045;-79
2023/01/12 12:05:12;;;;;;;3.03;0.95;;;;;;;;;;5011935;28;20096;-76
2023/01/12 12:07:51;;;;;;;3.03;0.70;;;;;;;;;;5013271;28;20129;-78
2023/01/12 12:10:22;;;;;;;2.88;0.82;;;;;;;;;;5014415;28;20046;-79
2023/01/12 12:13:17;;;;;;;3.53;0.60;;;;;;;;;;5013086;28;20061;-77
2023/01/12 12:15:51;;;;;;;1.98;0.60;;;;;;;;;;5012006;28;20104;-78
2023/01/12 12:18:34;;;;;;;10.60;1.20;;;;;;;;;;5011741;28;20050;-78
2023/01/12 12:21:14;;;;;;;4.70;0.73;;;;;;;;;;4993980;28;20046;-78
2023/01/12 12:23:50;;;;;;;3.45;0.60;;;;;;;;;;5001690;28;20057;-77
2023/01/12 12:26:22;;;;;;;2.03;0.40;;;;;;;;;;5021733;28;20042;-78
2023/01/12 12:29:10;;;;;;;2.45;0.77;;;;;;;;;;5022045;28;20053;-78
2023/01/12 12:31:50;;;;;;;3.90;0.60;;;;;;;;;;5014995;28;20699;-78
2023/01/12 12:34:43;;;;;;;5.55;1.10;;;;;;;;;;5011903;28;20050;-78
2023/01/12 12:37:20;;;;;;;2.97;0.57;;;;;;;;;;5015232;28;20068;-78
2023/01/12 12:39:56;;;;;;;2.83;0.77;;;;;;;;;;5015485;28;20057;-77
2023/01/12 12:45:38;;;;;;;2.50;0.63;;;;;;;;;;5014896;28;20080;-77
2023/01/12 12:48:10;;;;;;;1.70;0.77;;;;;;;;;;5015001;28;20053;-78
2023/01/12 12:50:42;;;;;;;4.78;0.95;;;;;;;;;;5014008;28;20045;-77
2023/01/12 12:53:27;;;;;;;2.03;0.57;;;;;;;;;;5013517;28;20046;-77
2023/01/12 12:55:58;;;;;;;2.47;0.77;;;;;;;;;;5013819;28;20126;-79
2023/01/12 12:58:43;;;;;;;1.60;0.63;;;;;;;;;;5013763;28;20042;-78
2023/01/12 13:01:55;;;;;;;3.03;1.00;;;;;;;;;;5003742;28;20046;-78
2023/01/12 13:05:04;;;;;;;1.73;0.68;;;;;;;;;;4996599;28;20052;-77
2023/01/12 13:07:36;;;;;;;2.03;0.90;;;;;;;;;;4997125;28;20058;-76
2023/01/12 13:10:21;;;;;;;3.15;1.02;;;;;;;;;;4994960;28;20410;-77
2023/01/12 13:13:03;;;;;;;3.72;1.00;;;;;;;;;;5007392;28;20046;-78
2023/01/12 13:15:35;;;;;;;1.55;0.65;;;;;;;;;;4994431;28;20054;-78
2023/01/12 13:18:04;;;;;;;1.77;0.75;;;;;;;;;;4995083;28;20056;-76
2023/01/12 13:20:38;;;;;;;3.03;0.70;;;;;;;;;;4997117;28;20050;-78
2023/01/12 13:23:44;;;;;;;2.72;0.65;;;;;;;;;;5014789;28;20121;-78
2023/01/12 13:26:44;;;;;;;4.55;0.95;;;;;;;;;;5014352;28;20145;-77
2023/01/12 13:29:39;;;;;;;3.10;1.05;;;;;;;;;;4981818;28;20072;-77
2023/01/12 13:32:45;;;;;;;3.22;0.90;;;;;;;;;;5016082;28;20077;-78
2023/01/12 13:35:28;;;;;;;4.43;1.02;;;;;;;;;;4972277;28;20086;-77
2023/01/12 13:38:01;;;;;;;5.28;0.80;;;;;;;;;;4972102;28;20043;-78
2023/01/12 13:40:31;;;;;;;2.50;0.88;;;;;;;;;;5002209;28;20054;-78
2023/01/12 13:43:15;;;;;;;4.72;1.88;;;;;;;;;;4998208;28;20133;-78
2023/01/12 13:45:50;;;;;;;4.60;1.10;;;;;;;;;;5009915;28;20050;-78
2023/01/12 13:48:18;;;;;;;3.42;0.90;;;;;;;;;;5013837;28;20045;-78
2023/01/12 13:50:48;;;;;;;3.85;0.73;;;;;;;;;;5039450;28;20076;-78
2023/01/12 13:53:22;;;;;;;4.80;1.83;;;;;;;;;;5029798;28;20503;-77
2023/01/12 13:56:02;;;;;;;2.30;1.13;;;;;;;;;;5016623;28;20054;-78
2023/01/12 13:58:39;;;;;;;2.72;1.30;;;;;;;;;;5024703;28;20140;-80
2023/01/12 14:01:14;;;;;;;3.28;1.02;;;;;;;;;;5009102;28;20047;-78
2023/01/12 14:04:00;;;;;;;2.58;1.23;;;;;;;;;;5016355;28;20077;-77
2023/01/12 14:06:39;;;;;;;2.83;1.02;;;;;;;;;;5016567;28;20095;-77
2023/01/12 14:09:18;;;;;;;2.00;0.70;;;;;;;;;;5016340;28;20060;-78
2023/01/12 14:12:10;;;;;;;2.45;0.77;;;;;;;;;;5015629;28;20057;-78
2023/01/12 14:17:52;;;;;;;2.63;1.10;;;;;;;;;;5015073;28;20052;-77
2023/01/12 14:20:21;;;;;;;2.85;1.00;;;;;;;;;;5017036;28;20670;-79
2023/01/12 14:23:17;;;;;;;3.03;0.90;;;;;;;;;;5002428;28;20054;-77
2023/01/12 14:25:45;;;;;;;1.95;0.90;;;;;;;;;;5018497;28;20534;-78
2023/01/12 14:28:19;;;;;;;2.80;0.88;;;;;;;;;;5027125;28;20050;-78
2023/01/12 14:30:50;;;;;;;7.05;1.80;;;;;;;;;;5008564;28;20077;-78
2023/01/12 14:33:20;;;;;;;3.30;0.88;;;;;;;;;;4997560;28;20081;-78
2023/01/12 14:35:48;;;;;;;3.28;0.68;;;;;;;;;;4997881;28;20048;-78
2023/01/12 14:38:19;;;;;;;4.72;0.90;;;;;;;;;;5010021;28;20524;-77
2023/01/12 14:40:53;;;;;;;4.28;0.82;;;;;;;;;;5015396;28;20048;-79
2023/01/12 14:49:01;;;;;;;2.85;1.23;;;;;;;;;;5016554;28;20454;-78
2023/01/12 14:51:33;;;;;;;2.05;0.63;;;;;;;;;;5014197;28;20076;-78
2023/01/12 14:54:17;;;;;;;6.50;1.10;;;;;;;;;;5013639;28;20555;-78
2023/01/12 14:56:49;;;;;;;3.20;0.70;;;;;;;;;;5011295;28;20041;-77
2023/01/12 14:59:21;;;;;;;4.38;0.80;;;;;;;;;;5011740;28;20057;-78
2023/01/12 15:01:48;;;;;;;1.40;0.60;;;;;;;;;;5013979;28;20184;-78
2023/01/12 15:04:18;;;;;;;1.65;0.60;;;;;;;;;;5013790;28;20491;-80
2023/01/12 15:06:45;;;;;;;5.20;1.30;;;;;;;;;;4997230;28;20501;-79
2023/01/12 15:09:29;;;;;;;2.95;0.80;;;;;;;;;;5009007;28;20050;-78
2023/01/12 15:11:56;;;;;;;3.22;0.80;;;;;;;;;;5018081;28;20438;-81
2023/01/12 15:14:25;;;;;;;3.75;0.70;;;;;;;;;;5017218;28;20073;-81
2023/01/12 15:27:59;;;;;;;2.47;0.75;;;;;;;;;;5000500;28;20208;-79
2023/01/12 15:30:26;;;;;;;3.13;0.65;;;;;;;;;;5012268;28;20054;-77
2023/01/12 15:32:55;;;;;;;2.55;0.70;;;;;;;;;;5017782;28;20136;-84
2023/01/12 15:35:23;;;;;;;3.97;1.25;;;;;;;;;;5015813;28;20061;-79
2023/01/12 15:37:52;;;;;;;5.50;0.90;;;;;;;;;;5007947;28;20085;-78
2023/01/12 15:40:28;;;;;;;2.70;0.70;;;;;;;;;;4994801;28;20043;-78
2023/01/12 15:42:57;;;;;;;2.22;0.70;;;;;;;;;;5011639;28;20073;-79
2023/01/12 15:45:33;;;;;;;4.95;1.20;;;;;;;;;;5013670;28;20511;-78
2023/01/12 15:48:00;;;;;;;2.22;0.77;;;;;;;;;;5016032;28;20096;-78
2023/01/12 15:50:28;;;;;;;2.45;0.80;;;;;;;;;;5014208;28;20122;-78
2023/01/12 15:52:55;;;;;;;1.83;0.50;;;;;;;;;;5011737;28;20141;-77
2023/01/12 15:55:23;;;;;;;2.17;0.60;;;;;;;;;;5013574;28;20116;-78
2023/01/12 15:57:51;;;;;;;2.47;0.77;;;;;;;;;;5012952;28;20550;-76
2023/01/12 16:00:19;;;;;;;2.17;0.85;;;;;;;;;;5013313;28;20042;-78
2023/01/12 16:02:47;;;;;;;1.83;0.80;;;;;;;;;;5013794;28;20045;-78
2023/01/12 16:05:16;;;;;;;3.75;0.77;;;;;;;;;;5005203;28;20050;-77
2023/01/12 16:07:43;;;;;;;1.77;0.52;;;;;;;;;;4999160;28;20046;-78